sensor_id;sensor_type;location;lat;lon;timestamp;temperature;humidity
16102;DHT22;56411;52.964;10.540;2023-12-28T00:02:02;6.20;99.90
16102;DHT22;56411;52.964;10.540;2023-12-28T00:04:29;6.30;99.90
16102;DHT22;56411;52.964;10.540;2023-12-28T00:06:57;6.30;99.90
16102;DHT22;56411;52.964;10.540;2023-12-28T00:09:24;6.40;99.90
16102;DHT22;56411;52.964;10.540;2023-12-28T00:11:51;6.30;99.90
16102;DHT22;56411;52.964;10.540;2023-12-28T00:14:18;6.40;99.90
16102;DHT22;56411;52.964;10.540;2023-12-28T00:16:45;6.30;99.90
16102;DHT22;56411;52.964;10.540;2023-12-28T00:19:12;6.30;99.90
16102;DHT22;56411;52.964;10.540;2023-12-28T00:21:39;6.20;99.90
16102;DHT22;56411;52.964;10.540;2023-12-28T00:24:08;6.30;99.90
16102;DHT22;56411;52.964;10.540;2023-12-28T00:26:35;6.30;99.90
16102;DHT22;56411;52.964;10.540;2023-12-28T00:29:02;6.30;99.90
16102;DHT22;56411;52.964;10.540;2023-12-28T00:31:29;6.30;99.90
16102;DHT22;56411;52.964;10.540;2023-12-28T00:33:56;6.30;99.90
16102;DHT22;56411;52.964;10.540;2023-12-28T00:36:24;6.40;99.90
16102;DHT22;56411;52.964;10.540;2023-12-28T00:38:52;6.40;99.90
16102;DHT22;56411;52.964;10.540;2023-12-28T00:41:20;6.50;99.90
16102;DHT22;56411;52.964;10.540;2023-12-28T00:43:47;6.50;99.90
16102;DHT22;56411;52.964;10.540;2023-12-28T00:46:14;6.60;99.90
16102;DHT22;56411;52.964;10.540;2023-12-28T00:48:41;6.60;99.90
16102;DHT22;56411;52.964;10.540;2023-12-28T00:51:08;6.70;99.90
16102;DHT22;56411;52.964;10.540;2023-12-28T00:53:36;6.70;99.90
16102;DHT22;56411;52.964;10.540;2023-12-28T00:56:03;6.80;99.90
16102;DHT22;56411;52.964;10.540;2023-12-28T00:58:31;6.80;99.90
16102;DHT22;56411;52.964;10.540;2023-12-28T01:00:58;6.90;99.90
16102;DHT22;56411;52.964;10.540;2023-12-28T01:03:25;6.90;99.90
16102;DHT22;56411;52.964;10.540;2023-12-28T01:05:53;7.00;99.90
16102;DHT22;56411;52.964;10.540;2023-12-28T01:08:20;7.10;99.90
16102;DHT22;56411;52.964;10.540;2023-12-28T01:10:47;7.20;99.90
16102;DHT22;56411;52.964;10.540;2023-12-28T01:13:15;7.20;99.90
16102;DHT22;56411;52.964;10.540;2023-12-28T01:15:44;7.30;99.90
16102;DHT22;56411;52.964;10.540;2023-12-28T01:18:12;7.50;99.90
16102;DHT22;56411;52.964;10.540;2023-12-28T01:20:39;7.50;99.90
16102;DHT22;56411;52.964;10.540;2023-12-28T01:23:06;7.40;99.90
16102;DHT22;56411;52.964;10.540;2023-12-28T01:25:32;7.40;99.90
16102;DHT22;56411;52.964;10.540;2023-12-28T01:28:00;7.30;99.90
16102;DHT22;56411;52.964;10.540;2023-12-28T01:30:27;7.20;99.90
16102;DHT22;56411;52.964;10.540;2023-12-28T01:32:55;7.20;99.90
16102;DHT22;56411;52.964;10.540;2023-12-28T01:35:21;7.20;99.90
16102;DHT22;56411;52.964;10.540;2023-12-28T01:37:48;7.20;99.90
16102;DHT22;56411;52.964;10.540;2023-12-28T01:40:15;7.20;99.90
16102;DHT22;56411;52.964;10.540;2023-12-28T01:42:43;7.20;99.90
16102;DHT22;56411;52.964;10.540;2023-12-28T01:45:11;7.10;99.90
16102;DHT22;56411;52.964;10.540;2023-12-28T01:47:38;7.10;99.90
16102;DHT22;56411;52.964;10.540;2023-12-28T01:50:09;7.10;99.90
16102;DHT22;56411;52.964;10.540;2023-12-28T01:52:36;7.10;99.90
16102;DHT22;56411;52.964;10.540;2023-12-28T01:55:05;7.10;99.90
16102;DHT22;56411;52.964;10.540;2023-12-28T01:57:33;7.10;99.90
16102;DHT22;56411;52.964;10.540;2023-12-28T02:00:01;7.20;99.90
16102;DHT22;56411;52.964;10.540;2023-12-28T02:02:30;7.10;99.90
16102;DHT22;56411;52.964;10.540;2023-12-28T02:04:58;7.20;99.90
16102;DHT22;56411;52.964;10.540;2023-12-28T02:07:27;7.20;99.90
16102;DHT22;56411;52.964;10.540;2023-12-28T02:09:56;7.20;99.90
16102;DHT22;56411;52.964;10.540;2023-12-28T02:12:23;7.30;99.90
16102;DHT22;56411;52.964;10.540;2023-12-28T02:14:50;7.20;99.90
16102;DHT22;56411;52.964;10.540;2023-12-28T02:17:23;7.20;99.90
16102;DHT22;56411;52.964;10.540;2023-12-28T02:19:54;7.20;99.90
16102;DHT22;56411;52.964;10.540;2023-12-28T02:22:23;7.20;99.90
16102;DHT22;56411;52.964;10.540;2023-12-28T02:25:05;7.20;99.90
16102;DHT22;56411;52.964;10.540;2023-12-28T02:27:33;7.30;99.90
16102;DHT22;56411;52.964;10.540;2023-12-28T02:30:01;7.40;99.90
16102;DHT22;56411;52.964;10.540;2023-12-28T02:32:38;7.40;99.90
16102;DHT22;56411;52.964;10.540;2023-12-28T02:35:14;7.50;99.90
16102;DHT22;56411;52.964;10.540;2023-12-28T02:37:43;7.50;99.90
16102;DHT22;56411;52.964;10.540;2023-12-28T02:40:14;7.50;99.90
16102;DHT22;56411;52.964;10.540;2023-12-28T02:42:42;7.70;99.90
16102;DHT22;56411;52.964;10.540;2023-12-28T02:45:09;7.70;99.90
16102;DHT22;56411;52.964;10.540;2023-12-28T02:47:36;7.70;99.90
16102;DHT22;56411;52.964;10.540;2023-12-28T02:50:04;7.70;99.90
16102;DHT22;56411;52.964;10.540;2023-12-28T02:52:31;7.80;99.90
16102;DHT22;56411;52.964;10.540;2023-12-28T02:54:58;7.80;99.90
16102;DHT22;56411;52.964;10.540;2023-12-28T02:57:27;7.80;99.90
16102;DHT22;56411;52.964;10.540;2023-12-28T02:59:54;7.90;99.90
16102;DHT22;56411;52.964;10.540;2023-12-28T03:02:22;7.80;99.90
16102;DHT22;56411;52.964;10.540;2023-12-28T03:04:50;7.90;99.90
16102;DHT22;56411;52.964;10.540;2023-12-28T03:07:16;7.90;99.90
16102;DHT22;56411;52.964;10.540;2023-12-28T03:09:43;8.00;99.90
16102;DHT22;56411;52.964;10.540;2023-12-28T03:12:11;8.00;99.90
16102;DHT22;56411;52.964;10.540;2023-12-28T03:14:39;8.10;99.90
16102;DHT22;56411;52.964;10.540;2023-12-28T03:17:06;8.20;99.90
16102;DHT22;56411;52.964;10.540;2023-12-28T03:19:33;8.20;99.90
16102;DHT22;56411;52.964;10.540;2023-12-28T03:22:00;8.20;99.90
16102;DHT22;56411;52.964;10.540;2023-12-28T03:24:29;8.10;99.90
16102;DHT22;56411;52.964;10.540;2023-12-28T03:26:55;8.10;99.90
16102;DHT22;56411;52.964;10.540;2023-12-28T03:29:23;8.20;99.90
16102;DHT22;56411;52.964;10.540;2023-12-28T03:31:52;8.30;99.90
16102;DHT22;56411;52.964;10.540;2023-12-28T03:34:19;8.30;99.90
16102;DHT22;56411;52.964;10.540;2023-12-28T03:36:47;8.30;99.90
16102;DHT22;56411;52.964;10.540;2023-12-28T03:39:14;8.50;99.90
16102;DHT22;56411;52.964;10.540;2023-12-28T03:41:41;8.50;99.90
16102;DHT22;56411;52.964;10.540;2023-12-28T03:44:08;8.50;99.90
16102;DHT22;56411;52.964;10.540;2023-12-28T03:46:35;8.40;99.90
16102;DHT22;56411;52.964;10.540;2023-12-28T03:49:04;8.50;99.90
16102;DHT22;56411;52.964;10.540;2023-12-28T03:51:31;8.40;99.90
16102;DHT22;56411;52.964;10.540;2023-12-28T03:53:58;8.50;99.90
16102;DHT22;56411;52.964;10.540;2023-12-28T03:56:26;8.50;99.90
16102;DHT22;56411;52.964;10.540;2023-12-28T03:58:54;8.50;99.90
16102;DHT22;56411;52.964;10.540;2023-12-28T04:01:22;8.50;99.90
16102;DHT22;56411;52.964;10.540;2023-12-28T04:03:49;8.50;99.90
16102;DHT22;56411;52.964;10.540;2023-12-28T04:06:17;8.50;99.90
16102;DHT22;56411;52.964;10.540;2023-12-28T04:08:44;8.50;99.90
16102;DHT22;56411;52.964;10.540;2023-12-28T04:11:11;8.40;99.90
16102;DHT22;56411;52.964;10.540;2023-12-28T04:13:38;8.40;99.90
16102;DHT22;56411;52.964;10.540;2023-12-28T04:16:06;8.40;99.90
16102;DHT22;56411;52.964;10.540;2023-12-28T04:18:35;8.40;99.90
16102;DHT22;56411;52.964;10.540;2023-12-28T04:21:02;8.50;99.90
16102;DHT22;56411;52.964;10.540;2023-12-28T04:23:30;8.70;99.90
16102;DHT22;56411;52.964;10.540;2023-12-28T04:25:58;8.70;99.90
16102;DHT22;56411;52.964;10.540;2023-12-28T04:28:25;8.70;99.90
16102;DHT22;56411;52.964;10.540;2023-12-28T04:30:52;8.70;99.90
16102;DHT22;56411;52.964;10.540;2023-12-28T04:33:19;8.60;99.90
16102;DHT22;56411;52.964;10.540;2023-12-28T04:35:46;8.70;99.90
16102;DHT22;56411;52.964;10.540;2023-12-28T04:38:13;8.70;99.90
16102;DHT22;56411;52.964;10.540;2023-12-28T04:40:42;8.60;99.90
16102;DHT22;56411;52.964;10.540;2023-12-28T04:43:09;8.60;99.90
16102;DHT22;56411;52.964;10.540;2023-12-28T04:45:36;8.60;99.90
16102;DHT22;56411;52.964;10.540;2023-12-28T04:48:04;8.60;99.90
16102;DHT22;56411;52.964;10.540;2023-12-28T04:50:31;8.50;99.90
16102;DHT22;56411;52.964;10.540;2023-12-28T04:52:58;8.50;99.90
16102;DHT22;56411;52.964;10.540;2023-12-28T04:55:25;8.50;99.90
16102;DHT22;56411;52.964;10.540;2023-12-28T04:57:53;8.50;99.90
16102;DHT22;56411;52.964;10.540;2023-12-28T05:00:20;8.40;99.90
16102;DHT22;56411;52.964;10.540;2023-12-28T05:02:47;8.40;99.90
16102;DHT22;56411;52.964;10.540;2023-12-28T05:05:14;8.40;99.90
16102;DHT22;56411;52.964;10.540;2023-12-28T05:07:41;8.40;99.90
16102;DHT22;56411;52.964;10.540;2023-12-28T05:10:08;8.50;99.90
16102;DHT22;56411;52.964;10.540;2023-12-28T05:12:35;8.40;99.90
16102;DHT22;56411;52.964;10.540;2023-12-28T05:15:05;8.40;99.90
16102;DHT22;56411;52.964;10.540;2023-12-28T05:17:32;8.40;99.90
16102;DHT22;56411;52.964;10.540;2023-12-28T05:19:59;8.30;99.90
16102;DHT22;56411;52.964;10.540;2023-12-28T05:22:26;8.20;99.90
16102;DHT22;56411;52.964;10.540;2023-12-28T05:24:53;8.20;99.90
16102;DHT22;56411;52.964;10.540;2023-12-28T05:27:20;8.20;99.90
16102;DHT22;56411;52.964;10.540;2023-12-28T05:29:47;8.10;99.90
16102;DHT22;56411;52.964;10.540;2023-12-28T05:32:15;8.10;99.90
16102;DHT22;56411;52.964;10.540;2023-12-28T05:34:43;8.10;99.90
16102;DHT22;56411;52.964;10.540;2023-12-28T05:37:10;8.10;99.90
16102;DHT22;56411;52.964;10.540;2023-12-28T05:39:37;8.00;99.90
16102;DHT22;56411;52.964;10.540;2023-12-28T05:42:04;8.00;99.90
16102;DHT22;56411;52.964;10.540;2023-12-28T05:44:32;8.00;99.90
16102;DHT22;56411;52.964;10.540;2023-12-28T05:46:59;8.10;99.90
16102;DHT22;56411;52.964;10.540;2023-12-28T05:49:27;8.20;99.90
16102;DHT22;56411;52.964;10.540;2023-12-28T05:51:56;8.20;99.90
16102;DHT22;56411;52.964;10.540;2023-12-28T05:54:23;8.20;99.90
16102;DHT22;56411;52.964;10.540;2023-12-28T05:56:51;8.20;99.90
16102;DHT22;56411;52.964;10.540;2023-12-28T05:59:18;8.20;99.90
16102;DHT22;56411;52.964;10.540;2023-12-28T06:01:47;8.20;99.90
16102;DHT22;56411;52.964;10.540;2023-12-28T06:04:14;8.20;99.90
16102;DHT22;56411;52.964;10.540;2023-12-28T06:06:42;8.40;99.90
16102;DHT22;56411;52.964;10.540;2023-12-28T06:09:10;8.40;99.90
16102;DHT22;56411;52.964;10.540;2023-12-28T06:11:37;8.40;99.90
16102;DHT22;56411;52.964;10.540;2023-12-28T06:14:04;8.50;99.90
16102;DHT22;56411;52.964;10.540;2023-12-28T06:16:31;8.50;99.90
16102;DHT22;56411;52.964;10.540;2023-12-28T06:18:59;8.50;99.90
16102;DHT22;56411;52.964;10.540;2023-12-28T06:21:26;8.50;99.90
16102;DHT22;56411;52.964;10.540;2023-12-28T06:23:57;8.50;99.90
16102;DHT22;56411;52.964;10.540;2023-12-28T06:26:24;8.60;99.90
16102;DHT22;56411;52.964;10.540;2023-12-28T06:28:51;8.60;99.90
16102;DHT22;56411;52.964;10.540;2023-12-28T06:31:17;8.60;99.90
16102;DHT22;56411;52.964;10.540;2023-12-28T06:33:45;8.60;99.90
16102;DHT22;56411;52.964;10.540;2023-12-28T06:36:12;8.50;99.90
16102;DHT22;56411;52.964;10.540;2023-12-28T06:38:39;8.50;99.90
16102;DHT22;56411;52.964;10.540;2023-12-28T06:41:13;8.50;99.90
16102;DHT22;56411;52.964;10.540;2023-12-28T06:43:40;8.50;99.90
16102;DHT22;56411;52.964;10.540;2023-12-28T06:46:07;8.50;99.90
16102;DHT22;56411;52.964;10.540;2023-12-28T06:48:34;8.50;99.90
16102;DHT22;56411;52.964;10.540;2023-12-28T06:51:01;8.50;99.90
16102;DHT22;56411;52.964;10.540;2023-12-28T06:53:29;8.50;99.90
16102;DHT22;56411;52.964;10.540;2023-12-28T06:55:56;8.40;99.90
16102;DHT22;56411;52.964;10.540;2023-12-28T06:58:24;8.40;99.90
16102;DHT22;56411;52.964;10.540;2023-12-28T07:00:51;8.40;99.90
16102;DHT22;56411;52.964;10.540;2023-12-28T07:03:18;8.30;99.90
16102;DHT22;56411;52.964;10.540;2023-12-28T07:05:45;8.30;99.90
16102;DHT22;56411;52.964;10.540;2023-12-28T07:08:12;8.30;99.90
16102;DHT22;56411;52.964;10.540;2023-12-28T07:10:39;8.40;99.90
16102;DHT22;56411;52.964;10.540;2023-12-28T07:13:06;8.40;99.90
16102;DHT22;56411;52.964;10.540;2023-12-28T07:15:35;8.40;99.90
16102;DHT22;56411;52.964;10.540;2023-12-28T07:18:03;8.30;99.90
16102;DHT22;56411;52.964;10.540;2023-12-28T07:20:30;8.40;99.90
16102;DHT22;56411;52.964;10.540;2023-12-28T07:22:57;8.30;99.90
16102;DHT22;56411;52.964;10.540;2023-12-28T07:25:24;8.40;99.90
16102;DHT22;56411;52.964;10.540;2023-12-28T07:27:51;8.30;99.90
16102;DHT22;56411;52.964;10.540;2023-12-28T07:30:18;8.30;99.90
16102;DHT22;56411;52.964;10.540;2023-12-28T07:32:47;8.40;99.90
16102;DHT22;56411;52.964;10.540;2023-12-28T07:35:14;8.50;99.90
16102;DHT22;56411;52.964;10.540;2023-12-28T07:37:41;8.50;99.90
16102;DHT22;56411;52.964;10.540;2023-12-28T07:40:09;8.40;99.90
16102;DHT22;56411;52.964;10.540;2023-12-28T07:42:36;8.40;99.90
16102;DHT22;56411;52.964;10.540;2023-12-28T07:45:04;8.40;99.90
16102;DHT22;56411;52.964;10.540;2023-12-28T07:47:31;8.40;99.90
16102;DHT22;56411;52.964;10.540;2023-12-28T07:50:00;8.50;99.90
16102;DHT22;56411;52.964;10.540;2023-12-28T07:52:28;8.50;99.90
16102;DHT22;56411;52.964;10.540;2023-12-28T07:54:55;8.60;99.90
16102;DHT22;56411;52.964;10.540;2023-12-28T07:57:22;8.60;99.90
16102;DHT22;56411;52.964;10.540;2023-12-28T07:59:49;8.60;99.90
16102;DHT22;56411;52.964;10.540;2023-12-28T08:02:16;8.70;99.90
16102;DHT22;56411;52.964;10.540;2023-12-28T08:04:43;8.80;99.90
16102;DHT22;56411;52.964;10.540;2023-12-28T08:07:11;8.80;99.90
16102;DHT22;56411;52.964;10.540;2023-12-28T08:09:38;8.90;99.90
16102;DHT22;56411;52.964;10.540;2023-12-28T08:12:05;9.00;99.90
16102;DHT22;56411;52.964;10.540;2023-12-28T08:14:32;9.00;99.90
16102;DHT22;56411;52.964;10.540;2023-12-28T08:16:59;9.10;99.90
16102;DHT22;56411;52.964;10.540;2023-12-28T08:19:26;9.20;99.90
16102;DHT22;56411;52.964;10.540;2023-12-28T08:21:53;9.20;99.90
16102;DHT22;56411;52.964;10.540;2023-12-28T08:24:22;9.30;99.90
16102;DHT22;56411;52.964;10.540;2023-12-28T08:26:49;9.20;99.90
16102;DHT22;56411;52.964;10.540;2023-12-28T08:29:16;9.30;99.90
16102;DHT22;56411;52.964;10.540;2023-12-28T08:31:43;9.40;99.90
16102;DHT22;56411;52.964;10.540;2023-12-28T08:34:10;9.30;99.90
16102;DHT22;56411;52.964;10.540;2023-12-28T08:36:37;9.30;99.90
16102;DHT22;56411;52.964;10.540;2023-12-28T08:39:04;9.20;99.90
16102;DHT22;56411;52.964;10.540;2023-12-28T08:41:33;9.40;99.90
16102;DHT22;56411;52.964;10.540;2023-12-28T08:44:00;9.40;99.90
16102;DHT22;56411;52.964;10.540;2023-12-28T08:46:27;9.40;99.90
16102;DHT22;56411;52.964;10.540;2023-12-28T08:48:57;9.40;99.90
16102;DHT22;56411;52.964;10.540;2023-12-28T08:51:24;9.50;99.90
16102;DHT22;56411;52.964;10.540;2023-12-28T08:53:51;9.50;99.90
16102;DHT22;56411;52.964;10.540;2023-12-28T08:56:22;9.60;99.90
16102;DHT22;56411;52.964;10.540;2023-12-28T08:58:50;9.70;99.90
16102;DHT22;56411;52.964;10.540;2023-12-28T09:01:20;9.70;99.90
16102;DHT22;56411;52.964;10.540;2023-12-28T09:03:48;9.70;99.90
16102;DHT22;56411;52.964;10.540;2023-12-28T09:06:16;9.70;99.90
16102;DHT22;56411;52.964;10.540;2023-12-28T09:08:43;9.70;99.90
16102;DHT22;56411;52.964;10.540;2023-12-28T09:11:10;9.80;99.90
16102;DHT22;56411;52.964;10.540;2023-12-28T09:13:38;9.80;99.90
16102;DHT22;56411;52.964;10.540;2023-12-28T09:16:08;9.80;99.90
16102;DHT22;56411;52.964;10.540;2023-12-28T09:18:37;9.80;99.90
16102;DHT22;56411;52.964;10.540;2023-12-28T09:21:05;9.80;99.90
16102;DHT22;56411;52.964;10.540;2023-12-28T09:23:33;9.80;99.90
16102;DHT22;56411;52.964;10.540;2023-12-28T09:26:02;10.00;99.90
16102;DHT22;56411;52.964;10.540;2023-12-28T09:28:29;10.00;99.90
16102;DHT22;56411;52.964;10.540;2023-12-28T09:30:56;10.00;99.90
16102;DHT22;56411;52.964;10.540;2023-12-28T09:33:25;9.90;99.90
16102;DHT22;56411;52.964;10.540;2023-12-28T09:35:52;10.00;99.90
16102;DHT22;56411;52.964;10.540;2023-12-28T09:38:19;10.10;99.90
16102;DHT22;56411;52.964;10.540;2023-12-28T09:40:48;10.00;99.90
16102;DHT22;56411;52.964;10.540;2023-12-28T09:43:22;10.10;99.90
16102;DHT22;56411;52.964;10.540;2023-12-28T09:45:50;10.30;99.90
16102;DHT22;56411;52.964;10.540;2023-12-28T09:48:20;10.30;99.90
16102;DHT22;56411;52.964;10.540;2023-12-28T09:50:51;10.30;99.90
16102;DHT22;56411;52.964;10.540;2023-12-28T09:53:20;10.30;99.90
16102;DHT22;56411;52.964;10.540;2023-12-28T09:55:48;10.30;99.90
16102;DHT22;56411;52.964;10.540;2023-12-28T09:58:17;10.30;99.90
16102;DHT22;56411;52.964;10.540;2023-12-28T10:00:46;10.20;99.90
16102;DHT22;56411;52.964;10.540;2023-12-28T10:03:14;10.10;99.90
16102;DHT22;56411;52.964;10.540;2023-12-28T10:05:42;10.10;99.90
16102;DHT22;56411;52.964;10.540;2023-12-28T10:08:11;10.00;99.90
16102;DHT22;56411;52.964;10.540;2023-12-28T10:10:39;10.00;99.90
16102;DHT22;56411;52.964;10.540;2023-12-28T10:13:06;10.00;99.90
16102;DHT22;56411;52.964;10.540;2023-12-28T10:15:35;9.90;99.90
16102;DHT22;56411;52.964;10.540;2023-12-28T10:18:03;10.00;99.90
16102;DHT22;56411;52.964;10.540;2023-12-28T10:20:31;9.80;99.90
16102;DHT22;56411;52.964;10.540;2023-12-28T10:22:59;9.80;99.90
16102;DHT22;56411;52.964;10.540;2023-12-28T10:25:28;9.90;99.90
16102;DHT22;56411;52.964;10.540;2023-12-28T10:27:55;9.90;99.90
16102;DHT22;56411;52.964;10.540;2023-12-28T10:30:22;10.00;99.90
16102;DHT22;56411;52.964;10.540;2023-12-28T10:32:50;10.10;99.90
16102;DHT22;56411;52.964;10.540;2023-12-28T10:35:17;10.20;99.90
16102;DHT22;56411;52.964;10.540;2023-12-28T10:37:45;10.20;99.90
16102;DHT22;56411;52.964;10.540;2023-12-28T10:40:13;10.30;99.90
16102;DHT22;56411;52.964;10.540;2023-12-28T10:42:49;10.40;99.90
16102;DHT22;56411;52.964;10.540;2023-12-28T10:45:19;10.40;99.90
16102;DHT22;56411;52.964;10.540;2023-12-28T10:47:54;10.50;99.90
16102;DHT22;56411;52.964;10.540;2023-12-28T10:50:27;10.50;99.90
16102;DHT22;56411;52.964;10.540;2023-12-28T10:53:04;10.50;99.90
16102;DHT22;56411;52.964;10.540;2023-12-28T10:55:43;10.50;99.90
16102;DHT22;56411;52.964;10.540;2023-12-28T10:58:18;10.70;99.90
16102;DHT22;56411;52.964;10.540;2023-12-28T11:00:54;10.80;99.90
16102;DHT22;56411;52.964;10.540;2023-12-28T11:03:27;10.70;99.90
16102;DHT22;56411;52.964;10.540;2023-12-28T11:05:56;10.70;99.90
16102;DHT22;56411;52.964;10.540;2023-12-28T11:08:23;10.90;99.90
16102;DHT22;56411;52.964;10.540;2023-12-28T11:10:51;10.80;99.90
16102;DHT22;56411;52.964;10.540;2023-12-28T11:13:20;10.80;99.90
16102;DHT22;56411;52.964;10.540;2023-12-28T11:15:48;11.00;99.90
16102;DHT22;56411;52.964;10.540;2023-12-28T11:18:16;11.10;99.90
16102;DHT22;56411;52.964;10.540;2023-12-28T11:20:46;11.20;99.90
16102;DHT22;56411;52.964;10.540;2023-12-28T11:23:15;11.00;99.90
16102;DHT22;56411;52.964;10.540;2023-12-28T11:25:42;10.80;99.90
16102;DHT22;56411;52.964;10.540;2023-12-28T11:28:10;10.80;99.90
16102;DHT22;56411;52.964;10.540;2023-12-28T11:30:39;11.00;99.90
16102;DHT22;56411;52.964;10.540;2023-12-28T11:33:08;11.00;99.90
16102;DHT22;56411;52.964;10.540;2023-12-28T11:35:38;10.90;99.90
16102;DHT22;56411;52.964;10.540;2023-12-28T11:38:08;10.80;99.90
16102;DHT22;56411;52.964;10.540;2023-12-28T11:40:42;10.70;99.90
16102;DHT22;56411;52.964;10.540;2023-12-28T11:43:15;10.60;99.90
16102;DHT22;56411;52.964;10.540;2023-12-28T11:45:49;10.70;99.90
16102;DHT22;56411;52.964;10.540;2023-12-28T11:48:24;10.70;99.90
16102;DHT22;56411;52.964;10.540;2023-12-28T11:50:55;10.70;99.90
16102;DHT22;56411;52.964;10.540;2023-12-28T11:53:25;10.70;99.90
16102;DHT22;56411;52.964;10.540;2023-12-28T11:55:52;10.70;99.90
16102;DHT22;56411;52.964;10.540;2023-12-28T11:58:26;10.70;99.90
16102;DHT22;56411;52.964;10.540;2023-12-28T12:00:55;10.70;99.90
16102;DHT22;56411;52.964;10.540;2023-12-28T12:03:25;10.60;99.90
16102;DHT22;56411;52.964;10.540;2023-12-28T12:05:52;10.70;99.90
16102;DHT22;56411;52.964;10.540;2023-12-28T12:08:19;10.70;99.90
16102;DHT22;56411;52.964;10.540;2023-12-28T12:10:47;10.80;99.90
16102;DHT22;56411;52.964;10.540;2023-12-28T12:13:14;11.00;99.90
16102;DHT22;56411;52.964;10.540;2023-12-28T12:15:42;11.10;99.90
16102;DHT22;56411;52.964;10.540;2023-12-28T12:18:11;11.10;99.90
16102;DHT22;56411;52.964;10.540;2023-12-28T12:20:38;11.10;99.90
16102;DHT22;56411;52.964;10.540;2023-12-28T12:23:05;11.00;99.90
16102;DHT22;56411;52.964;10.540;2023-12-28T12:25:32;10.80;99.90
16102;DHT22;56411;52.964;10.540;2023-12-28T12:27:59;10.80;99.90
16102;DHT22;56411;52.964;10.540;2023-12-28T12:30:26;10.70;99.90
16102;DHT22;56411;52.964;10.540;2023-12-28T12:32:53;10.70;99.90
16102;DHT22;56411;52.964;10.540;2023-12-28T12:35:22;10.70;99.90
16102;DHT22;56411;52.964;10.540;2023-12-28T12:37:50;10.70;99.90
16102;DHT22;56411;52.964;10.540;2023-12-28T12:40:18;10.70;99.90
16102;DHT22;56411;52.964;10.540;2023-12-28T12:42:52;10.60;99.90
16102;DHT22;56411;52.964;10.540;2023-12-28T12:45:20;10.60;99.90
16102;DHT22;56411;52.964;10.540;2023-12-28T12:47:48;10.70;99.90
16102;DHT22;56411;52.964;10.540;2023-12-28T12:50:16;10.70;99.90
16102;DHT22;56411;52.964;10.540;2023-12-28T12:52:45;10.60;99.90
16102;DHT22;56411;52.964;10.540;2023-12-28T12:55:19;10.60;99.90
16102;DHT22;56411;52.964;10.540;2023-12-28T12:57:48;10.60;99.90
16102;DHT22;56411;52.964;10.540;2023-12-28T13:00:16;10.60;99.90
16102;DHT22;56411;52.964;10.540;2023-12-28T13:02:44;10.50;99.90
16102;DHT22;56411;52.964;10.540;2023-12-28T13:05:11;10.70;99.90
16102;DHT22;56411;52.964;10.540;2023-12-28T13:07:39;10.60;99.90
16102;DHT22;56411;52.964;10.540;2023-12-28T13:10:08;10.50;99.90
16102;DHT22;56411;52.964;10.540;2023-12-28T13:12:36;10.50;99.90
16102;DHT22;56411;52.964;10.540;2023-12-28T13:15:04;10.60;99.90
16102;DHT22;56411;52.964;10.540;2023-12-28T13:17:32;10.60;99.90
16102;DHT22;56411;52.964;10.540;2023-12-28T13:20:00;10.60;99.90
16102;DHT22;56411;52.964;10.540;2023-12-28T13:22:27;10.50;99.90
16102;DHT22;56411;52.964;10.540;2023-12-28T13:24:54;10.40;99.90
16102;DHT22;56411;52.964;10.540;2023-12-28T13:27:23;10.40;99.90
16102;DHT22;56411;52.964;10.540;2023-12-28T13:29:50;10.50;99.90
16102;DHT22;56411;52.964;10.540;2023-12-28T13:32:17;10.40;99.90
16102;DHT22;56411;52.964;10.540;2023-12-28T13:34:44;10.40;99.90
16102;DHT22;56411;52.964;10.540;2023-12-28T13:37:11;10.40;99.90
16102;DHT22;56411;52.964;10.540;2023-12-28T13:39:38;10.40;99.90
16102;DHT22;56411;52.964;10.540;2023-12-28T13:42:06;10.40;99.90
16102;DHT22;56411;52.964;10.540;2023-12-28T13:44:35;10.30;99.90
16102;DHT22;56411;52.964;10.540;2023-12-28T13:47:03;10.30;99.90
16102;DHT22;56411;52.964;10.540;2023-12-28T13:49:31;10.20;99.90
16102;DHT22;56411;52.964;10.540;2023-12-28T13:51:58;10.20;99.90
16102;DHT22;56411;52.964;10.540;2023-12-28T13:54:25;10.20;99.90
16102;DHT22;56411;52.964;10.540;2023-12-28T13:56:53;10.30;99.90
16102;DHT22;56411;52.964;10.540;2023-12-28T13:59:24;10.20;99.90
16102;DHT22;56411;52.964;10.540;2023-12-28T14:01:53;10.30;99.90
16102;DHT22;56411;52.964;10.540;2023-12-28T14:04:22;10.30;99.90
16102;DHT22;56411;52.964;10.540;2023-12-28T14:06:49;10.30;99.90
16102;DHT22;56411;52.964;10.540;2023-12-28T14:09:16;10.30;99.90
16102;DHT22;56411;52.964;10.540;2023-12-28T14:11:46;10.20;99.90
16102;DHT22;56411;52.964;10.540;2023-12-28T14:14:13;10.20;99.90
16102;DHT22;56411;52.964;10.540;2023-12-28T14:16:41;10.30;99.90
16102;DHT22;56411;52.964;10.540;2023-12-28T14:19:09;10.30;99.90
16102;DHT22;56411;52.964;10.540;2023-12-28T14:21:37;10.30;99.90
16102;DHT22;56411;52.964;10.540;2023-12-28T14:24:05;10.30;99.90
16102;DHT22;56411;52.964;10.540;2023-12-28T14:26:33;10.30;99.90
16102;DHT22;56411;52.964;10.540;2023-12-28T14:29:01;10.40;99.90
16102;DHT22;56411;52.964;10.540;2023-12-28T14:31:31;10.30;99.90
16102;DHT22;56411;52.964;10.540;2023-12-28T14:33:58;10.30;99.90
16102;DHT22;56411;52.964;10.540;2023-12-28T14:36:31;10.20;99.90
16102;DHT22;56411;52.964;10.540;2023-12-28T14:38:59;10.40;99.90
16102;DHT22;56411;52.964;10.540;2023-12-28T14:41:26;10.40;99.90
16102;DHT22;56411;52.964;10.540;2023-12-28T14:43:55;10.30;99.90
16102;DHT22;56411;52.964;10.540;2023-12-28T14:46:22;10.30;99.90
16102;DHT22;56411;52.964;10.540;2023-12-28T14:48:50;10.20;99.90
16102;DHT22;56411;52.964;10.540;2023-12-28T14:51:17;10.20;99.90
16102;DHT22;56411;52.964;10.540;2023-12-28T14:53:46;10.20;99.90
16102;DHT22;56411;52.964;10.540;2023-12-28T14:56:13;10.30;99.90
16102;DHT22;56411;52.964;10.540;2023-12-28T14:58:40;10.20;99.90
16102;DHT22;56411;52.964;10.540;2023-12-28T15:01:10;10.20;99.90
16102;DHT22;56411;52.964;10.540;2023-12-28T15:03:38;10.30;99.90
16102;DHT22;56411;52.964;10.540;2023-12-28T15:06:05;10.20;99.90
16102;DHT22;56411;52.964;10.540;2023-12-28T15:08:33;10.20;99.90
16102;DHT22;56411;52.964;10.540;2023-12-28T15:11:03;10.20;99.90
16102;DHT22;56411;52.964;10.540;2023-12-28T15:13:32;10.10;99.90
16102;DHT22;56411;52.964;10.540;2023-12-28T15:16:00;10.20;99.90
16102;DHT22;56411;52.964;10.540;2023-12-28T15:18:29;10.20;99.90
16102;DHT22;56411;52.964;10.540;2023-12-28T15:20:57;10.20;99.90
16102;DHT22;56411;52.964;10.540;2023-12-28T15:23:25;10.20;99.90
16102;DHT22;56411;52.964;10.540;2023-12-28T15:25:53;10.10;99.90
16102;DHT22;56411;52.964;10.540;2023-12-28T15:28:21;10.20;99.90
16102;DHT22;56411;52.964;10.540;2023-12-28T15:30:49;10.30;99.90